createdAt,value
2019-02-15T00:00:42.197Z,47.53
2019-02-15T00:03:11.656Z,49.13
2019-02-15T00:05:41.147Z,45.10
2019-02-15T00:08:10.639Z,48.37
2019-02-15T00:10:40.104Z,46.27
2019-02-15T00:13:13.557Z,46.33
2019-02-15T00:15:41.368Z,46.20
2019-02-15T00:18:12.464Z,46.17
2019-02-15T00:20:58.693Z,46.87
2019-02-15T00:23:28.145Z,47.53
2019-02-15T00:25:57.597Z,48.57
2019-02-15T00:28:27.234Z,46.77
2019-02-15T00:30:56.685Z,49.47
2019-02-15T00:33:26.132Z,50.33
2019-02-15T00:35:55.625Z,46.20
2019-02-15T00:38:25.092Z,50.30
2019-02-15T00:40:54.548Z,46.40
2019-02-15T00:43:24.027Z,40.53
2019-02-15T00:46:11.345Z,44.80
2019-02-15T00:48:40.991Z,49.70
2019-02-15T00:51:12.324Z,39.57
2019-02-15T00:53:49.308Z,46.00
2019-02-15T00:56:26.354Z,44.80
2019-02-15T00:58:57.832Z,48.43
2019-02-15T01:01:31.654Z,32.53
2019-02-15T01:04:05.326Z,49.60
2019-02-15T01:06:36.402Z,47.87
2019-02-15T01:09:09.197Z,46.20
2019-02-15T01:11:40.343Z,46.33
2019-02-15T01:14:09.799Z,47.10
2019-02-15T01:16:39.257Z,45.40
2019-02-15T01:19:08.755Z,45.03
2019-02-15T01:21:38.216Z,44.27
2019-02-15T01:24:07.660Z,29.97
2019-02-15T01:26:41.923Z,32.37
2019-02-15T01:29:31.151Z,42.20
2019-02-15T01:32:11.254Z,40.17
2019-02-15T01:34:58.829Z,41.07
2019-02-15T01:37:32.673Z,40.30
2019-02-15T01:40:06.665Z,41.00
2019-02-15T01:42:43.652Z,41.13
2019-02-15T01:45:17.455Z,40.57
2019-02-15T01:47:46.919Z,39.57
2019-02-15T01:50:16.397Z,41.13
2019-02-15T01:52:47.752Z,33.10
2019-02-15T01:55:17.200Z,40.40
2019-02-15T01:57:46.504Z,38.03
2019-02-15T02:00:17.960Z,46.83
2019-02-15T02:02:47.493Z,41.17
2019-02-15T02:05:16.983Z,31.30
2019-02-15T02:07:46.435Z,32.40
2019-02-15T02:10:15.881Z,34.53
2019-02-15T02:12:45.469Z,35.10
2019-02-15T02:15:14.996Z,27.97
2019-02-15T02:17:44.452Z,34.87
2019-02-15T02:20:14.282Z,22.27
2019-02-15T02:22:43.744Z,25.30
2019-02-15T02:25:13.199Z,33.93
2019-02-15T02:27:42.686Z,31.97
2019-02-15T02:30:12.226Z,31.67
2019-02-15T02:32:41.670Z,22.90
2019-02-15T02:35:11.177Z,27.80
2019-02-15T02:37:40.615Z,33.30
2019-02-15T02:40:10.146Z,34.60
2019-02-15T02:42:39.644Z,35.60
2019-02-15T02:45:09.381Z,35.20
2019-02-15T02:47:38.836Z,20.60
2019-02-15T02:50:08.899Z,20.73
2019-02-15T02:52:38.358Z,21.60
2019-02-15T02:55:08.115Z,30.83
2019-02-15T02:57:37.599Z,36.80
2019-02-15T03:00:07.729Z,24.63
2019-02-15T03:02:37.175Z,20.10
2019-02-15T03:05:06.800Z,31.80
2019-02-15T03:07:36.239Z,19.27
2019-02-15T03:10:07.604Z,20.97
2019-02-15T03:12:37.069Z,18.03
2019-02-15T03:15:07.622Z,26.57
2019-02-15T03:17:37.073Z,43.67
2019-02-15T03:20:08.004Z,36.13
2019-02-15T03:22:37.452Z,33.10
2019-02-15T03:25:07.041Z,21.60
2019-02-15T03:27:36.540Z,27.00
2019-02-15T03:30:09.544Z,21.07
2019-02-15T03:32:38.974Z,33.47
2019-02-15T03:35:10.415Z,33.20
2019-02-15T03:37:41.495Z,30.67
2019-02-15T03:40:12.666Z,30.20
2019-02-15T03:42:42.147Z,39.27
2019-02-15T03:45:11.840Z,30.60
2019-02-15T03:47:41.291Z,28.77
2019-02-15T03:50:10.781Z,32.27
2019-02-15T03:52:40.231Z,31.10
2019-02-15T03:55:09.743Z,37.47
2019-02-15T03:57:39.244Z,36.47
2019-02-15T04:00:13.462Z,39.13
2019-02-15T04:02:42.901Z,38.30
2019-02-15T04:05:12.562Z,35.43
2019-02-15T04:07:42.019Z,37.50
2019-02-15T04:10:11.542Z,34.20
2019-02-15T04:12:41.040Z,37.00
2019-02-15T04:15:10.503Z,32.77
2019-02-15T04:17:39.983Z,37.73
2019-02-15T04:20:10.304Z,27.77
2019-02-15T04:22:39.754Z,36.37
2019-02-15T04:25:09.468Z,36.23
2019-02-15T04:27:38.929Z,28.33
2019-02-15T04:30:11.693Z,23.73
2019-02-15T04:32:41.146Z,33.00
2019-02-15T04:35:10.851Z,35.23
2019-02-15T04:37:40.309Z,29.03
2019-02-15T04:40:10.835Z,32.00
2019-02-15T04:42:40.355Z,34.43
2019-02-15T04:45:10.167Z,40.30
2019-02-15T04:47:39.627Z,31.00
2019-02-15T04:50:10.574Z,23.47
2019-02-15T04:52:40.024Z,38.30
2019-02-15T04:55:09.462Z,37.03
2019-02-15T04:57:38.955Z,34.53
2019-02-15T05:00:09.898Z,41.83
2019-02-15T05:02:39.359Z,37.50
2019-02-15T05:05:09.096Z,35.87
2019-02-15T05:07:38.549Z,36.77
2019-02-15T05:10:08.017Z,35.80
2019-02-15T05:12:37.481Z,32.77
2019-02-15T05:15:08.752Z,36.67
2019-02-15T05:17:38.212Z,33.13
2019-02-15T05:20:08.797Z,36.77
2019-02-15T05:22:38.245Z,35.50
2019-02-15T05:25:07.850Z,39.47
2019-02-15T05:27:37.378Z,39.47
2019-02-15T05:30:08.679Z,39.00
2019-02-15T05:32:38.122Z,51.83
2019-02-15T05:35:07.668Z,53.97
2019-02-15T05:37:37.145Z,50.30
2019-02-15T05:40:07.580Z,46.93
2019-02-15T05:42:37.059Z,45.20
2019-02-15T05:45:07.072Z,49.50
2019-02-15T05:47:36.517Z,49.37
2019-02-15T05:50:07.320Z,47.47
2019-02-15T05:52:36.771Z,49.47
2019-02-15T05:55:25.621Z,50.10
2019-02-15T05:57:55.063Z,47.90
2019-02-15T06:00:24.515Z,27.50
2019-02-15T06:02:53.992Z,35.37
2019-02-15T06:05:23.480Z,27.47
2019-02-15T06:07:52.948Z,26.40
2019-02-15T06:10:22.417Z,72.53
2019-02-15T06:12:51.884Z,145.20
2019-02-15T06:15:21.345Z,131.43
2019-02-15T06:17:50.844Z,58.43
2019-02-15T06:20:20.302Z,44.93
2019-02-15T06:22:49.755Z,32.50
2019-02-15T06:25:19.261Z,37.70
2019-02-15T06:27:48.709Z,34.13
2019-02-15T06:30:18.166Z,35.40
2019-02-15T06:32:47.659Z,43.13
2019-02-15T06:35:17.118Z,40.50
2019-02-15T06:37:46.646Z,39.90
2019-02-15T06:40:16.140Z,38.97
2019-02-15T06:42:45.600Z,41.50
2019-02-15T06:45:24.033Z,38.20
2019-02-15T06:47:46.265Z,41.63
2019-02-15T06:50:15.732Z,32.80
2019-02-15T06:52:45.189Z,43.90
2019-02-15T06:55:14.660Z,33.37
2019-02-15T06:57:44.115Z,51.40
2019-02-15T07:00:18.395Z,31.70
2019-02-15T07:02:52.472Z,35.93
2019-02-15T07:05:28.128Z,28.17
2019-02-15T07:07:57.622Z,37.77
2019-02-15T07:10:27.086Z,28.03
2019-02-15T07:12:56.540Z,25.80
2019-02-15T07:15:33.480Z,28.50
2019-02-15T07:17:57.193Z,30.60
2019-02-15T07:20:26.649Z,27.90
2019-02-15T07:22:56.126Z,25.90
2019-02-15T07:25:25.578Z,27.27
2019-02-15T07:27:55.031Z,26.23
2019-02-15T07:30:24.530Z,22.27
2019-02-15T07:32:53.974Z,28.27
2019-02-15T07:35:23.429Z,33.40
2019-02-15T07:37:52.926Z,39.80
2019-02-15T07:40:22.383Z,27.80
2019-02-15T07:42:51.918Z,40.57
2019-02-15T07:45:22.721Z,40.80
2019-02-15T07:47:52.295Z,39.17
2019-02-15T07:50:21.791Z,41.50
2019-02-15T07:52:51.231Z,33.03
2019-02-15T07:55:20.725Z,32.03
2019-02-15T07:57:50.191Z,35.43
2019-02-15T08:00:19.714Z,36.83
2019-02-15T08:02:49.170Z,34.00
2019-02-15T08:05:18.626Z,35.70
2019-02-15T08:07:48.103Z,31.70
2019-02-15T08:10:17.552Z,26.80
2019-02-15T08:12:47.031Z,23.00
2019-02-15T08:15:16.480Z,19.43
2019-02-15T08:17:45.973Z,18.60
2019-02-15T08:20:15.447Z,20.27
2019-02-15T08:22:44.912Z,21.17
2019-02-15T08:25:14.385Z,18.20
2019-02-15T08:27:43.948Z,18.80
2019-02-15T08:30:13.450Z,19.17
2019-02-15T08:32:42.930Z,16.37
2019-02-15T08:35:12.415Z,16.97
2019-02-15T08:37:41.891Z,18.77
2019-02-15T08:40:12.143Z,16.70
2019-02-15T08:42:41.596Z,15.30
2019-02-15T08:45:13.247Z,15.50
2019-02-15T08:47:42.749Z,17.80
2019-02-15T08:50:13.037Z,16.43
2019-02-15T08:52:42.500Z,16.77
2019-02-15T08:55:12.999Z,18.63
2019-02-15T08:57:42.485Z,16.30
2019-02-15T09:00:13.749Z,16.00
2019-02-15T09:02:43.275Z,16.87
2019-02-15T09:05:13.614Z,16.90
2019-02-15T09:07:43.064Z,16.20
2019-02-15T09:10:14.044Z,15.20
2019-02-15T09:12:43.523Z,15.63
2019-02-15T09:15:20.211Z,16.10
2019-02-15T09:17:49.729Z,14.30
2019-02-15T09:20:19.361Z,16.40
2019-02-15T09:22:48.802Z,16.17
2019-02-15T09:25:18.285Z,15.20
2019-02-15T09:27:49.371Z,15.73
2019-02-15T09:30:18.824Z,14.27
2019-02-15T09:32:48.308Z,11.87
2019-02-15T09:35:18.326Z,12.53
2019-02-15T09:37:47.786Z,13.97
2019-02-15T09:40:17.267Z,13.60
2019-02-15T09:42:46.714Z,12.67
2019-02-15T09:45:16.162Z,14.13
2019-02-15T09:47:45.634Z,12.27
2019-02-15T09:50:15.086Z,13.70
2019-02-15T09:52:44.527Z,12.30
2019-02-15T09:55:14.021Z,12.93
2019-02-15T09:57:43.478Z,13.50
2019-02-15T10:00:12.999Z,12.90
2019-02-15T10:02:42.521Z,13.83
2019-02-15T10:05:11.945Z,12.93
2019-02-15T10:07:41.394Z,12.20
2019-02-15T10:10:11.348Z,12.13
2019-02-15T10:12:40.858Z,13.80
2019-02-15T10:15:12.014Z,11.70
2019-02-15T10:17:41.494Z,11.63
2019-02-15T10:20:10.939Z,12.30
2019-02-15T10:22:40.375Z,10.17
2019-02-15T10:25:11.075Z,12.00
2019-02-15T10:27:40.562Z,10.53
2019-02-15T10:30:12.769Z,10.60
2019-02-15T10:32:42.248Z,11.37
2019-02-15T10:35:12.175Z,11.30
2019-02-15T10:37:41.630Z,12.00
2019-02-15T10:40:12.318Z,12.60
2019-02-15T10:42:41.766Z,14.03
2019-02-15T10:45:16.058Z,12.07
2019-02-15T10:47:45.540Z,12.20
2019-02-15T10:50:15.268Z,12.50
2019-02-15T10:52:44.716Z,10.40
2019-02-15T10:55:14.291Z,12.13
2019-02-15T10:57:43.779Z,11.70
2019-02-15T11:00:19.255Z,12.23
2019-02-15T11:02:48.715Z,11.07
2019-02-15T11:05:18.914Z,12.30
2019-02-15T11:07:48.402Z,13.10
2019-02-15T11:10:17.931Z,11.90
2019-02-15T11:12:47.391Z,11.80
2019-02-15T11:15:18.055Z,11.90
2019-02-15T11:17:47.490Z,12.53
2019-02-15T11:20:18.786Z,12.87
2019-02-15T11:22:48.278Z,12.20
2019-02-15T11:25:17.773Z,12.17
2019-02-15T11:27:47.289Z,12.03
2019-02-15T11:30:17.729Z,11.70
2019-02-15T11:32:47.197Z,11.23
2019-02-15T11:35:16.639Z,12.20
2019-02-15T11:37:46.142Z,11.57
2019-02-15T11:40:16.228Z,11.30
2019-02-15T11:42:45.686Z,12.47
2019-02-15T11:45:16.021Z,12.47
2019-02-15T11:47:45.481Z,9.57
2019-02-15T11:50:15.963Z,11.27
2019-02-15T11:52:45.452Z,12.20
2019-02-15T11:55:14.938Z,11.87
2019-02-15T11:57:44.449Z,10.83
2019-02-15T12:00:24.518Z,11.30
2019-02-15T12:02:53.978Z,11.43
2019-02-15T12:05:23.435Z,11.77
2019-02-15T12:07:52.936Z,11.47
2019-02-15T12:10:22.388Z,12.23
2019-02-15T12:12:52.012Z,10.47
2019-02-15T12:15:21.509Z,9.93
2019-02-15T12:17:50.957Z,10.00
2019-02-15T12:20:20.410Z,9.47
2019-02-15T12:22:49.902Z,10.47
2019-02-15T12:25:19.354Z,9.67
2019-02-15T12:27:48.818Z,9.80
2019-02-15T12:30:18.618Z,12.47
2019-02-15T12:32:48.114Z,10.70
2019-02-15T12:35:17.539Z,10.30
2019-02-15T12:37:47.126Z,9.40
2019-02-15T12:40:16.609Z,8.60
2019-02-15T12:42:46.066Z,8.00
2019-02-15T12:45:16.682Z,9.90
2019-02-15T12:47:49.559Z,10.27
2019-02-15T12:50:20.935Z,11.53
2019-02-15T12:52:50.412Z,12.33
2019-02-15T12:55:22.817Z,12.70
2019-02-15T12:57:52.282Z,11.60
2019-02-15T13:00:21.768Z,9.87
2019-02-15T13:02:51.222Z,10.43
2019-02-15T13:05:20.677Z,9.83
2019-02-15T13:07:50.164Z,10.33
2019-02-15T13:10:21.266Z,8.90
2019-02-15T13:12:50.729Z,8.20
2019-02-15T13:15:20.278Z,9.30
2019-02-15T13:17:51.603Z,8.30
2019-02-15T13:20:21.265Z,9.13
2019-02-15T13:22:51.182Z,9.47
2019-02-15T13:25:20.824Z,9.10
2019-02-15T13:27:50.343Z,8.20
2019-02-15T13:30:19.845Z,8.23
2019-02-15T13:32:49.335Z,8.13
2019-02-15T13:35:24.679Z,8.50
2019-02-15T13:37:54.170Z,7.83
2019-02-15T13:40:23.636Z,9.00
2019-02-15T13:42:53.081Z,7.90
2019-02-15T13:45:22.630Z,7.70
2019-02-15T13:47:52.077Z,9.30
2019-02-15T13:50:21.529Z,7.90
2019-02-15T13:52:51.007Z,8.20
2019-02-15T13:55:20.465Z,8.30
2019-02-15T13:57:49.908Z,8.53
2019-02-15T14:00:19.457Z,8.83
2019-02-15T14:02:48.923Z,8.00
2019-02-15T14:05:18.398Z,7.50
2019-02-15T14:07:48.065Z,8.20
2019-02-15T14:10:17.495Z,8.40
2019-02-15T14:12:46.990Z,7.83
2019-02-15T14:15:16.481Z,7.30
2019-02-15T14:17:48.328Z,8.03
2019-02-15T14:20:17.118Z,8.10
2019-02-15T14:22:46.621Z,8.17
2019-02-15T14:25:16.082Z,8.07
2019-02-15T14:27:45.528Z,7.90
2019-02-15T14:30:15.648Z,7.00
2019-02-15T14:32:45.103Z,7.50
2019-02-15T14:35:16.115Z,7.77
2019-02-15T14:37:45.584Z,8.63
2019-02-15T14:40:15.422Z,8.10
2019-02-15T14:42:44.959Z,8.70
2019-02-15T14:45:15.185Z,6.93
2019-02-15T14:47:54.029Z,7.40
2019-02-15T14:50:16.059Z,7.30
2019-02-15T14:52:45.569Z,7.40
2019-02-15T14:55:14.990Z,7.03
2019-02-15T14:57:44.441Z,7.37
2019-02-15T15:00:15.441Z,7.70
2019-02-15T15:02:44.909Z,6.00
2019-02-15T15:05:14.912Z,7.07
2019-02-15T15:07:44.474Z,7.40
2019-02-15T15:10:14.107Z,7.53
2019-02-15T15:12:43.625Z,7.50
2019-02-15T15:15:17.078Z,8.13
2019-02-15T15:17:46.536Z,8.10
2019-02-15T15:20:15.998Z,8.30
2019-02-15T15:22:45.502Z,8.10
2019-02-15T15:25:16.113Z,10.03
2019-02-15T15:27:45.576Z,9.20
2019-02-15T15:30:18.071Z,7.60
2019-02-15T15:32:47.541Z,8.70
2019-02-15T15:35:16.988Z,8.43
2019-02-15T15:37:46.477Z,8.10
2019-02-15T15:40:17.843Z,7.30
2019-02-15T15:42:47.299Z,7.30
2019-02-15T15:45:16.878Z,8.33
2019-02-15T15:47:46.341Z,7.43
2019-02-15T15:50:15.864Z,8.40
2019-02-15T15:52:45.351Z,10.30
2019-02-15T15:55:15.176Z,10.10
2019-02-15T15:57:44.633Z,10.30
2019-02-15T16:00:15.824Z,10.93
2019-02-15T16:02:45.289Z,11.50
2019-02-15T16:05:14.757Z,11.33
2019-02-15T16:07:44.217Z,12.33
2019-02-15T16:10:15.357Z,12.87
2019-02-15T16:12:44.814Z,13.30
2019-02-15T16:15:14.911Z,12.90
2019-02-15T16:17:44.385Z,15.47
2019-02-15T16:20:14.853Z,15.07
2019-02-15T16:22:44.332Z,14.10
2019-02-15T16:25:13.791Z,14.73
2019-02-15T16:27:43.688Z,15.17
2019-02-15T16:30:17.039Z,21.10
2019-02-15T16:32:46.490Z,14.47
2019-02-15T16:35:15.996Z,14.20
2019-02-15T16:37:45.542Z,33.13
2019-02-15T16:40:16.362Z,62.60
2019-02-15T16:42:45.991Z,39.20
2019-02-15T16:45:16.626Z,37.73
2019-02-15T16:47:46.246Z,30.43
2019-02-15T16:50:15.726Z,20.63
2019-02-15T16:52:45.201Z,19.27
2019-02-15T16:55:14.664Z,22.70
2019-02-15T16:57:44.151Z,15.80
2019-02-15T17:00:14.926Z,16.60
2019-02-15T17:02:44.363Z,9.77
2019-02-15T17:05:14.182Z,9.00
2019-02-15T17:07:43.733Z,24.97
2019-02-15T17:10:13.435Z,10.03
2019-02-15T17:12:42.937Z,25.23
2019-02-15T17:15:15.994Z,14.37
2019-02-15T17:17:45.488Z,15.40
2019-02-15T17:20:15.030Z,13.67
2019-02-15T17:22:44.480Z,12.93
2019-02-15T17:25:13.975Z,19.87
2019-02-15T17:27:43.479Z,14.97
2019-02-15T17:30:13.252Z,11.73
2019-02-15T17:32:42.744Z,14.73
2019-02-15T17:35:12.767Z,21.50
2019-02-15T17:37:42.233Z,19.40
2019-02-15T17:40:18.708Z,22.30
2019-02-15T17:42:48.157Z,23.23
2019-02-15T17:45:17.623Z,24.57
2019-02-15T17:47:47.105Z,26.97
2019-02-15T17:50:16.561Z,28.43
2019-02-15T17:52:46.021Z,25.27
2019-02-15T17:55:15.842Z,27.50
2019-02-15T17:57:45.291Z,25.70
2019-02-15T18:00:18.794Z,21.83
2019-02-15T18:02:48.295Z,31.27
2019-02-15T18:05:17.750Z,26.57
2019-02-15T18:07:49.907Z,27.60
2019-02-15T18:10:19.440Z,17.40
2019-02-15T18:12:48.888Z,32.00
2019-02-15T18:15:18.415Z,39.77
2019-02-15T18:17:47.924Z,50.87
2019-02-15T18:20:17.393Z,51.60
2019-02-15T18:22:46.839Z,47.90
2019-02-15T18:25:16.319Z,53.00
2019-02-15T18:27:45.832Z,53.77
2019-02-15T18:30:17.192Z,51.00
2019-02-15T18:32:46.674Z,30.80
2019-02-15T18:35:16.127Z,45.10
2019-02-15T18:37:45.580Z,51.40
2019-02-15T18:40:15.074Z,53.87
2019-02-15T18:42:44.533Z,49.33
2019-02-15T18:45:18.459Z,33.30
2019-02-15T18:47:48.178Z,32.23
2019-02-15T18:50:17.761Z,55.60
2019-02-15T18:52:47.210Z,52.30
2019-02-15T18:55:16.714Z,52.80
2019-02-15T18:57:46.156Z,26.17
2019-02-15T19:00:18.742Z,50.20
2019-02-15T19:02:51.125Z,57.30
2019-02-15T19:05:20.587Z,51.10
2019-02-15T19:07:50.064Z,33.17
2019-02-15T19:10:24.497Z,55.23
2019-02-15T19:12:54.000Z,54.33
2019-02-15T19:15:23.481Z,35.30
2019-02-15T19:17:52.931Z,45.57
2019-02-15T19:20:22.392Z,44.77
2019-02-15T19:22:51.889Z,51.97
2019-02-15T19:25:22.015Z,49.13
2019-02-15T19:27:51.489Z,47.70
2019-02-15T19:30:28.552Z,40.83
2019-02-15T19:32:58.048Z,44.43
2019-02-15T19:35:27.514Z,44.20
2019-02-15T19:37:56.997Z,46.30
2019-02-15T19:40:26.449Z,47.80
2019-02-15T19:43:00.568Z,54.53
2019-02-15T19:45:30.018Z,101.50
2019-02-15T19:47:59.477Z,83.53
2019-02-15T19:50:28.957Z,81.97
2019-02-15T19:52:59.642Z,60.63
2019-02-15T19:55:34.132Z,60.47
2019-02-15T19:58:03.634Z,85.03
2019-02-15T20:00:35.585Z,74.90
2019-02-15T20:03:05.373Z,85.10
2019-02-15T20:05:34.861Z,73.67
2019-02-15T20:08:04.317Z,62.73
2019-02-15T20:10:35.993Z,89.40
2019-02-15T20:13:09.797Z,94.53
2019-02-15T20:15:39.250Z,87.30
2019-02-15T20:18:08.725Z,66.70
2019-02-15T20:20:38.210Z,69.40
2019-02-15T20:23:07.699Z,51.57
2019-02-15T20:25:37.144Z,56.13
2019-02-15T20:28:13.781Z,48.00
2019-02-15T20:30:37.840Z,45.10
2019-02-15T20:33:07.290Z,46.90
2019-02-15T20:35:36.788Z,45.90
2019-02-15T20:38:06.251Z,48.03
2019-02-15T20:40:37.249Z,52.40
2019-02-15T20:43:06.729Z,56.10
2019-02-15T20:45:36.191Z,53.73
2019-02-15T20:48:11.229Z,58.07
2019-02-15T20:50:36.957Z,56.17
2019-02-15T20:53:06.426Z,59.60
2019-02-15T20:55:39.274Z,57.97
2019-02-15T20:58:08.734Z,59.67
2019-02-15T21:00:38.237Z,55.97
2019-02-15T21:03:07.720Z,52.13
2019-02-15T21:05:37.143Z,56.40
2019-02-15T21:08:06.651Z,54.97
2019-02-15T21:10:36.112Z,36.00
2019-02-15T21:13:05.644Z,32.13
2019-02-15T21:15:35.097Z,52.07
2019-02-15T21:18:04.601Z,52.37
2019-02-15T21:20:34.053Z,55.27
2019-02-15T21:23:03.502Z,55.30
2019-02-15T21:25:32.990Z,58.97
2019-02-15T21:28:02.450Z,60.07
2019-02-15T21:30:32.011Z,82.30
2019-02-15T21:33:01.500Z,93.13
2019-02-15T21:35:30.965Z,78.17
2019-02-15T21:38:01.547Z,81.43
2019-02-15T21:40:31.186Z,72.70
2019-02-15T21:43:00.689Z,70.53
2019-02-15T21:45:30.251Z,69.87
2019-02-15T21:47:59.718Z,71.90
2019-02-15T21:50:29.213Z,72.20
2019-02-15T21:52:58.664Z,66.00
2019-02-15T21:55:28.140Z,70.47
2019-02-15T21:58:01.525Z,76.13
2019-02-15T22:00:29.139Z,72.90
2019-02-15T22:02:58.623Z,70.30
2019-02-15T22:05:28.077Z,36.80
2019-02-15T22:07:57.642Z,35.43
2019-02-15T22:10:27.099Z,44.27
2019-02-15T22:12:56.601Z,36.80
2019-02-15T22:15:26.076Z,38.23
2019-02-15T22:17:55.538Z,65.37
2019-02-15T22:20:26.973Z,58.23
2019-02-15T22:22:56.250Z,52.23
2019-02-15T22:25:25.694Z,62.23
2019-02-15T22:27:55.141Z,55.43
2019-02-15T22:30:24.611Z,55.30
2019-02-15T22:32:54.076Z,62.00
2019-02-15T22:35:23.579Z,63.37
2019-02-15T22:37:53.093Z,62.53
2019-02-15T22:40:40.263Z,62.93
2019-02-15T22:43:14.258Z,71.80
2019-02-15T22:45:43.730Z,65.93
2019-02-15T22:48:13.193Z,68.07
2019-02-15T22:50:42.815Z,67.77
2019-02-15T22:53:12.277Z,60.83
2019-02-15T22:55:41.731Z,65.13
2019-02-15T22:58:11.211Z,63.37
2019-02-15T23:01:03.610Z,38.87
2019-02-15T23:03:33.057Z,35.00
2019-02-15T23:06:02.551Z,49.80
2019-02-15T23:08:32.030Z,42.23
2019-02-15T23:11:01.515Z,54.07
2019-02-15T23:13:31.073Z,42.07
2019-02-15T23:16:00.530Z,38.77
2019-02-15T23:18:30.021Z,58.33
2019-02-15T23:20:59.479Z,37.97
2019-02-15T23:23:28.975Z,55.63
2019-02-15T23:25:58.435Z,76.93
2019-02-15T23:28:27.916Z,62.27
2019-02-15T23:30:57.395Z,51.60
2019-02-15T23:33:26.894Z,52.53
2019-02-15T23:35:56.361Z,84.87
2019-02-15T23:38:25.871Z,89.27
2019-02-15T23:40:55.316Z,66.13
2019-02-15T23:43:24.785Z,46.73
2019-02-15T23:45:54.283Z,69.90
2019-02-15T23:48:23.792Z,71.67
2019-02-15T23:50:55.192Z,97.17
2019-02-15T23:53:24.439Z,93.87
2019-02-15T23:55:53.938Z,70.93
2019-02-15T23:58:23.416Z,46.23
